Time;durP1;ratioP1;P1;durP2;ratioP2;P2;SDS_P1;SDS_P2;PMS_P1;PMS_P2;Temp;Humidity;BMP_temperature;BMP_pressure;BME280_temperature;BME280_humidity;BME280_pressure;Samples;Min_cycle;Max_cycle;Signal;HPM_P1;HPM_P2
2022/03/17 00:02:17;;;;;;;31.77;28.47;;;;;;;;;;5035353;28;20197;-76
2022/03/17 00:04:44;;;;;;;32.57;28.50;;;;;;;;;;5035753;28;20301;-76
2022/03/17 00:07:12;;;;;;;32.93;29.43;;;;;;;;;;5035020;28;20200;-77
2022/03/17 00:09:40;;;;;;;29.67;26.47;;;;;;;;;;5035611;28;20218;-76
2022/03/17 00:12:09;;;;;;;32.53;29.13;;;;;;;;;;5033341;28;20234;-77
2022/03/17 00:14:36;;;;;;;31.80;28.60;;;;;;;;;;5033609;28;20244;-76
2022/03/17 00:17:04;;;;;;;31.07;27.83;;;;;;;;;;5033153;28;20233;-76
2022/03/17 00:19:31;;;;;;;31.37;28.07;;;;;;;;;;5034173;28;20206;-76
2022/03/17 00:21:59;;;;;;;32.23;28.83;;;;;;;;;;5027342;28;20217;-76
2022/03/17 00:24:26;;;;;;;33.13;29.63;;;;;;;;;;5034576;28;20230;-76
2022/03/17 00:26:53;;;;;;;31.73;28.33;;;;;;;;;;5033975;28;20233;-76
2022/03/17 00:29:22;;;;;;;30.40;27.30;;;;;;;;;;5034467;28;20249;-76
2022/03/17 00:31:49;;;;;;;33.10;29.70;;;;;;;;;;5034387;28;20281;-76
2022/03/17 00:34:16;;;;;;;32.97;29.47;;;;;;;;;;5034895;28;20229;-76
2022/03/17 00:36:44;;;;;;;31.73;28.33;;;;;;;;;;5033982;28;20297;-76
2022/03/17 00:39:12;;;;;;;31.37;27.97;;;;;;;;;;5034486;28;20190;-76
2022/03/17 00:41:40;;;;;;;34.10;30.40;;;;;;;;;;5034438;28;20201;-76
2022/03/17 00:44:07;;;;;;;33.53;28.33;;;;;;;;;;5033788;28;20222;-76
2022/03/17 00:46:36;;;;;;;32.13;28.73;;;;;;;;;;5035078;28;20212;-76
2022/03/17 00:49:03;;;;;;;32.80;29.30;;;;;;;;;;5034774;28;20273;-76
2022/03/17 00:51:30;;;;;;;31.80;28.50;;;;;;;;;;5017201;28;20305;-76
2022/03/17 00:53:57;;;;;;;30.53;27.30;;;;;;;;;;5034620;28;20324;-76
2022/03/17 00:56:25;;;;;;;32.53;29.03;;;;;;;;;;5034525;28;20292;-76
2022/03/17 00:58:52;;;;;;;34.03;30.30;;;;;;;;;;5034214;28;20214;-76
2022/03/17 01:01:19;;;;;;;33.03;29.53;;;;;;;;;;5034893;28;20202;-76
2022/03/17 01:03:48;;;;;;;34.27;30.57;;;;;;;;;;5029150;28;20276;-76
2022/03/17 01:06:16;;;;;;;33.67;30.17;;;;;;;;;;5035006;28;20213;-76
2022/03/17 01:08:43;;;;;;;33.67;29.97;;;;;;;;;;5034089;28;20202;-76
2022/03/17 01:11:10;;;;;;;33.23;29.67;;;;;;;;;;5034552;28;20734;-76
2022/03/17 01:13:37;;;;;;;33.17;29.20;;;;;;;;;;5034317;28;20218;-76
2022/03/17 01:16:05;;;;;;;33.20;29.67;;;;;;;;;;5034472;28;20208;-76
2022/03/17 01:18:32;;;;;;;32.80;29.20;;;;;;;;;;5033524;28;20205;-76
2022/03/17 01:21:00;;;;;;;34.77;30.97;;;;;;;;;;5034676;28;20202;-76
2022/03/17 01:23:28;;;;;;;32.90;28.90;;;;;;;;;;5033688;28;20257;-76
2022/03/17 01:25:55;;;;;;;32.13;28.73;;;;;;;;;;5034163;28;20300;-76
2022/03/17 01:28:22;;;;;;;32.10;28.60;;;;;;;;;;5032062;28;20198;-76
2022/03/17 01:30:52;;;;;;;33.70;29.00;;;;;;;;;;5034088;28;20218;-76
2022/03/17 01:33:19;;;;;;;32.83;29.33;;;;;;;;;;5058824;22;20306;-74
2022/03/17 01:35:46;;;;;;;32.27;28.77;;;;;;;;;;5017487;28;20207;-74
2022/03/17 01:38:15;;;;;;;34.80;29.13;;;;;;;;;;5011473;28;20289;-74
2022/03/17 01:40:42;;;;;;;32.70;29.20;;;;;;;;;;5012345;28;20203;-74
2022/03/17 01:43:09;;;;;;;34.60;30.20;;;;;;;;;;5011739;28;20214;-74
2022/03/17 01:45:36;;;;;;;32.73;29.20;;;;;;;;;;5012011;28;20203;-76
2022/03/17 01:48:04;;;;;;;31.80;28.30;;;;;;;;;;5011164;28;20631;-74
2022/03/17 01:50:31;;;;;;;31.13;27.23;;;;;;;;;;5012152;28;20234;-74
2022/03/17 01:52:58;;;;;;;32.20;28.73;;;;;;;;;;5011458;28;20297;-74
2022/03/17 01:55:27;;;;;;;30.87;27.30;;;;;;;;;;5011641;28;20212;-74
2022/03/17 01:57:54;;;;;;;32.07;28.43;;;;;;;;;;5010934;28;20286;-74
2022/03/17 02:00:22;;;;;;;32.40;28.57;;;;;;;;;;5012042;28;20202;-74
2022/03/17 02:02:50;;;;;;;32.57;29.07;;;;;;;;;;5011497;28;20247;-73
2022/03/17 02:05:19;;;;;;;33.57;29.17;;;;;;;;;;5012041;28;20237;-74
2022/03/17 02:07:48;;;;;;;32.53;29.10;;;;;;;;;;5011288;28;20201;-74
2022/03/17 02:10:16;;;;;;;33.03;28.50;;;;;;;;;;5011873;28;20225;-74
2022/03/17 02:15:32;;;;;;;30.90;27.53;;;;;;;;;;5012798;28;20205;-74
2022/03/17 02:17:59;;;;;;;30.47;27.17;;;;;;;;;;5011271;28;20214;-74
2022/03/17 02:20:26;;;;;;;31.13;27.83;;;;;;;;;;5001465;28;20203;-74
2022/03/17 02:22:54;;;;;;;31.77;27.93;;;;;;;;;;5003393;28;20234;-74
2022/03/17 02:25:35;;;;;;;32.90;29.30;;;;;;;;;;5012175;28;20206;-74
2022/03/17 02:28:04;;;;;;;32.20;28.70;;;;;;;;;;5010999;28;20205;-74
2022/03/17 02:30:31;;;;;;;33.10;29.60;;;;;;;;;;5012469;28;20230;-74
2022/03/17 02:33:00;;;;;;;33.50;29.47;;;;;;;;;;5011730;28;20198;-74
2022/03/17 02:35:27;;;;;;;32.90;29.00;;;;;;;;;;5011613;28;20206;-74
2022/03/17 02:37:56;;;;;;;32.33;28.93;;;;;;;;;;5011338;28;20205;-73
2022/03/17 02:40:26;;;;;;;31.50;28.20;;;;;;;;;;5011379;28;20661;-74
2022/03/17 02:42:53;;;;;;;31.90;27.60;;;;;;;;;;5011981;28;20205;-74
2022/03/17 02:45:20;;;;;;;30.73;27.43;;;;;;;;;;5011682;28;20293;-74
2022/03/17 02:47:47;;;;;;;33.83;28.50;;;;;;;;;;5011361;28;20204;-74
2022/03/17 02:50:15;;;;;;;31.97;28.13;;;;;;;;;;5011225;28;20294;-74
2022/03/17 02:52:42;;;;;;;29.97;26.73;;;;;;;;;;5012441;28;20325;-74
2022/03/17 02:55:11;;;;;;;30.67;27.43;;;;;;;;;;5011888;28;20309;-74
2022/03/17 02:57:39;;;;;;;30.57;27.27;;;;;;;;;;5011156;28;20207;-74
2022/03/17 03:00:08;;;;;;;32.47;27.87;;;;;;;;;;5007414;28;20308;-74
2022/03/17 03:02:35;;;;;;;32.93;28.40;;;;;;;;;;5011344;28;20195;-74
2022/03/17 03:05:03;;;;;;;31.93;27.63;;;;;;;;;;5011624;28;20257;-74
2022/03/17 03:07:30;;;;;;;32.23;28.47;;;;;;;;;;5013008;28;20206;-74
2022/03/17 03:09:57;;;;;;;33.03;28.80;;;;;;;;;;5015648;28;20285;-74
2022/03/17 03:12:25;;;;;;;32.83;29.00;;;;;;;;;;5015287;28;20222;-74
2022/03/17 03:14:53;;;;;;;35.70;30.97;;;;;;;;;;5014874;28;20229;-74
2022/03/17 03:17:22;;;;;;;33.00;28.37;;;;;;;;;;5014321;28;20322;-74
2022/03/17 03:19:49;;;;;;;34.67;29.93;;;;;;;;;;5015002;28;20213;-74
2022/03/17 03:22:17;;;;;;;33.53;29.17;;;;;;;;;;5015242;28;20229;-74
2022/03/17 03:24:45;;;;;;;31.93;28.33;;;;;;;;;;5015252;28;20300;-74
2022/03/17 03:27:12;;;;;;;30.93;27.07;;;;;;;;;;5014364;28;20237;-74
2022/03/17 03:29:39;;;;;;;30.33;26.97;;;;;;;;;;5015110;28;20294;-74
2022/03/17 03:32:09;;;;;;;31.73;27.80;;;;;;;;;;5014633;28;20219;-74
2022/03/17 03:34:36;;;;;;;34.53;28.27;;;;;;;;;;5014802;28;20317;-74
2022/03/17 03:39:48;;;;;;;32.50;28.70;;;;;;;;;;5014653;28;20194;-74
2022/03/17 03:42:15;;;;;;;31.93;28.63;;;;;;;;;;5015025;28;20234;-74
2022/03/17 03:44:42;;;;;;;29.83;26.63;;;;;;;;;;5014252;28;20214;-74
2022/03/17 03:47:11;;;;;;;31.53;28.13;;;;;;;;;;5013870;28;20202;-74
2022/03/17 03:49:42;;;;;;;30.97;27.67;;;;;;;;;;5015102;28;20290;-74
2022/03/17 03:52:10;;;;;;;31.73;28.20;;;;;;;;;;5013908;28;20221;-74
2022/03/17 03:54:37;;;;;;;31.73;27.73;;;;;;;;;;5013912;28;20307;-74
2022/03/17 03:57:05;;;;;;;30.50;27.17;;;;;;;;;;5013541;28;20277;-75
2022/03/17 03:59:32;;;;;;;29.40;26.23;;;;;;;;;;5014056;28;20206;-76
2022/03/17 04:02:00;;;;;;;28.97;25.90;;;;;;;;;;5014126;28;20286;-74
2022/03/17 04:04:29;;;;;;;31.10;27.70;;;;;;;;;;5013392;28;20289;-74
2022/03/17 04:06:58;;;;;;;34.67;27.57;;;;;;;;;;5013484;28;20233;-74
2022/03/17 04:09:30;;;;;;;32.27;25.80;;;;;;;;;;5014218;28;20218;-74
2022/03/17 04:11:57;;;;;;;32.23;28.73;;;;;;;;;;5013602;28;20222;-74
2022/03/17 04:14:25;;;;;;;30.07;26.73;;;;;;;;;;5013713;28;20222;-74
2022/03/17 04:16:52;;;;;;;32.10;27.93;;;;;;;;;;5013151;28;20213;-74
2022/03/17 04:19:20;;;;;;;32.00;27.23;;;;;;;;;;5013283;28;20234;-74
2022/03/17 04:21:49;;;;;;;32.17;27.93;;;;;;;;;;5013313;28;20290;-74
2022/03/17 04:24:16;;;;;;;35.67;28.60;;;;;;;;;;5012602;28;20309;-74
2022/03/17 04:26:44;;;;;;;33.97;28.20;;;;;;;;;;5010692;28;20205;-74
2022/03/17 04:29:11;;;;;;;35.57;28.83;;;;;;;;;;5013016;28;20213;-74
2022/03/17 04:31:39;;;;;;;31.83;28.43;;;;;;;;;;5012028;28;20297;-74
2022/03/17 04:34:06;;;;;;;32.40;28.43;;;;;;;;;;5013830;28;20265;-74
2022/03/17 04:36:34;;;;;;;30.70;27.40;;;;;;;;;;5014418;28;20198;-74
2022/03/17 04:39:03;;;;;;;34.30;27.73;;;;;;;;;;5021553;28;20290;-74
2022/03/17 04:41:31;;;;;;;32.90;27.00;;;;;;;;;;5025913;28;20202;-74
2022/03/17 04:43:58;;;;;;;34.83;28.00;;;;;;;;;;5029658;28;20245;-74
2022/03/17 04:46:25;;;;;;;33.60;28.00;;;;;;;;;;5022401;28;20263;-73
2022/03/17 04:48:52;;;;;;;35.87;28.50;;;;;;;;;;5005504;28;20191;-74
2022/03/17 04:51:19;;;;;;;34.33;27.90;;;;;;;;;;5015808;28;20254;-74
2022/03/17 04:53:47;;;;;;;32.77;27.80;;;;;;;;;;5014175;28;20258;-74
2022/03/17 04:56:17;;;;;;;31.27;27.73;;;;;;;;;;5020718;28;20218;-73
2022/03/17 04:58:45;;;;;;;32.67;27.83;;;;;;;;;;5023405;28;20206;-74
2022/03/17 05:01:13;;;;;;;29.07;25.90;;;;;;;;;;5025720;28;20290;-74
2022/03/17 05:03:40;;;;;;;31.97;28.30;;;;;;;;;;4998068;28;20219;-74
2022/03/17 05:06:07;;;;;;;34.13;28.87;;;;;;;;;;4993730;28;20286;-74
2022/03/17 05:08:35;;;;;;;35.40;28.67;;;;;;;;;;5009242;28;20202;-74
2022/03/17 05:11:03;;;;;;;33.83;28.87;;;;;;;;;;5003791;28;20207;-74
2022/03/17 05:13:32;;;;;;;34.03;28.37;;;;;;;;;;4993121;28;20310;-74
2022/03/17 05:15:59;;;;;;;33.27;28.90;;;;;;;;;;4993480;28;20290;-74
2022/03/17 05:18:26;;;;;;;35.87;30.43;;;;;;;;;;4992749;28;20302;-74
2022/03/17 05:20:54;;;;;;;33.43;28.83;;;;;;;;;;5008315;28;20212;-74
2022/03/17 05:23:22;;;;;;;34.33;28.80;;;;;;;;;;5012568;28;20297;-74
2022/03/17 05:25:50;;;;;;;34.67;28.60;;;;;;;;;;5013084;28;20198;-74
2022/03/17 05:28:18;;;;;;;32.37;27.83;;;;;;;;;;5008218;28;20205;-74
2022/03/17 05:30:46;;;;;;;30.67;26.63;;;;;;;;;;5007645;28;20198;-75
2022/03/17 05:33:14;;;;;;;33.60;29.17;;;;;;;;;;5009568;28;20314;-74
2022/03/17 05:35:41;;;;;;;39.53;28.77;;;;;;;;;;4994220;28;20203;-74
2022/03/17 05:38:09;;;;;;;35.17;28.43;;;;;;;;;;5008771;28;20195;-77
2022/03/17 05:40:36;;;;;;;33.97;28.90;;;;;;;;;;5006972;28;20229;-74
2022/03/17 05:43:06;;;;;;;33.47;27.77;;;;;;;;;;5008241;28;20610;-75
2022/03/17 05:45:34;;;;;;;32.63;28.23;;;;;;;;;;5004393;28;20195;-74
2022/03/17 05:48:03;;;;;;;33.50;28.63;;;;;;;;;;4993521;28;20207;-75
2022/03/17 05:50:31;;;;;;;31.63;26.63;;;;;;;;;;5006306;28;20286;-74
2022/03/17 05:52:58;;;;;;;34.37;26.77;;;;;;;;;;5008376;28;20225;-75
2022/03/17 05:55:26;;;;;;;33.67;28.17;;;;;;;;;;5009228;28;20293;-75
2022/03/17 05:57:54;;;;;;;30.93;27.47;;;;;;;;;;5011354;28;20198;-76
2022/03/17 06:00:23;;;;;;;33.63;27.50;;;;;;;;;;5002809;28;20217;-76
2022/03/17 06:02:50;;;;;;;33.27;28.83;;;;;;;;;;5010935;28;20214;-75
2022/03/17 06:05:19;;;;;;;34.30;28.73;;;;;;;;;;5005784;28;20223;-75
2022/03/17 06:07:47;;;;;;;35.07;28.47;;;;;;;;;;5002742;28;20750;-74
2022/03/17 06:10:15;;;;;;;34.93;28.37;;;;;;;;;;5007314;28;20245;-75
2022/03/17 06:12:43;;;;;;;35.40;30.10;;;;;;;;;;5011298;28;20779;-75
2022/03/17 06:15:11;;;;;;;32.23;28.03;;;;;;;;;;5012031;28;20219;-75
2022/03/17 06:17:39;;;;;;;32.83;29.23;;;;;;;;;;5009699;28;20194;-78
2022/03/17 06:20:09;;;;;;;32.90;28.53;;;;;;;;;;5006043;28;20281;-76
2022/03/17 06:22:38;;;;;;;33.73;28.43;;;;;;;;;;5006676;28;20277;-77
2022/03/17 06:25:06;;;;;;;33.27;28.53;;;;;;;;;;5005429;28;20457;-77
2022/03/17 06:27:34;;;;;;;43.00;29.93;;;;;;;;;;5006548;28;20192;-76
2022/03/17 06:30:01;;;;;;;34.17;28.23;;;;;;;;;;5001729;28;20194;-76
2022/03/17 06:32:29;;;;;;;32.97;29.07;;;;;;;;;;5001961;28;20229;-76
2022/03/17 06:34:56;;;;;;;33.23;27.80;;;;;;;;;;5006001;28;20241;-75
2022/03/17 06:37:24;;;;;;;31.83;26.63;;;;;;;;;;5003924;28;20597;-76
2022/03/17 06:39:53;;;;;;;31.93;27.40;;;;;;;;;;5000323;28;20195;-76
2022/03/17 06:42:20;;;;;;;31.57;28.17;;;;;;;;;;5006138;28;20276;-76
2022/03/17 06:44:48;;;;;;;35.10;29.00;;;;;;;;;;5006302;28;20299;-76
2022/03/17 06:47:15;;;;;;;36.50;28.17;;;;;;;;;;5003896;28;20270;-76
2022/03/17 06:49:42;;;;;;;33.33;29.27;;;;;;;;;;5005977;28;20194;-76
2022/03/17 06:52:09;;;;;;;40.30;29.37;;;;;;;;;;5006877;28;20245;-76
2022/03/17 06:54:37;;;;;;;35.87;28.77;;;;;;;;;;5006739;28;20261;-75
2022/03/17 06:57:06;;;;;;;34.10;27.47;;;;;;;;;;5004832;28;20258;-76
2022/03/17 06:59:33;;;;;;;33.40;28.10;;;;;;;;;;5004774;28;20195;-75
2022/03/17 07:02:00;;;;;;;43.00;30.23;;;;;;;;;;5006053;28;20225;-76
2022/03/17 07:04:27;;;;;;;33.23;27.60;;;;;;;;;;4995864;28;20238;-76
2022/03/17 07:06:55;;;;;;;32.47;28.63;;;;;;;;;;4999830;28;20297;-76
2022/03/17 07:09:22;;;;;;;34.23;26.73;;;;;;;;;;5012751;28;20282;-76
2022/03/17 07:11:49;;;;;;;31.93;28.43;;;;;;;;;;5003682;28;20323;-76
2022/03/17 07:14:17;;;;;;;34.57;29.03;;;;;;;;;;5013889;28;20222;-76
2022/03/17 07:16:45;;;;;;;31.80;28.17;;;;;;;;;;5012410;28;20211;-74
2022/03/17 07:19:12;;;;;;;31.60;28.20;;;;;;;;;;5008978;28;20282;-75
2022/03/17 07:21:39;;;;;;;33.70;30.03;;;;;;;;;;5010137;28;20250;-76
2022/03/17 07:24:09;;;;;;;33.13;29.53;;;;;;;;;;5009523;28;20242;-76
2022/03/17 07:26:36;;;;;;;32.13;28.17;;;;;;;;;;5007501;28;20206;-74
2022/03/17 07:29:04;;;;;;;32.73;28.37;;;;;;;;;;5015241;28;20226;-75
2022/03/17 07:31:33;;;;;;;32.23;28.70;;;;;;;;;;5015004;28;20238;-76
2022/03/17 07:34:00;;;;;;;30.10;27.00;;;;;;;;;;5036229;22;20225;-76
2022/03/17 07:36:28;;;;;;;32.73;29.20;;;;;;;;;;5061520;28;20203;-76
2022/03/17 07:38:55;;;;;;;35.47;30.20;;;;;;;;;;5056171;28;20201;-76
2022/03/17 07:41:23;;;;;;;35.13;29.40;;;;;;;;;;5058179;28;20201;-77
2022/03/17 07:43:50;;;;;;;30.73;27.33;;;;;;;;;;5057233;28;20358;-77
2022/03/17 07:46:18;;;;;;;32.57;29.17;;;;;;;;;;5060064;28;20235;-76
2022/03/17 07:48:49;;;;;;;34.97;29.23;;;;;;;;;;5055090;28;20297;-82
2022/03/17 07:51:16;;;;;;;37.93;28.90;;;;;;;;;;5059273;28;20205;-76
2022/03/17 07:53:44;;;;;;;30.53;27.27;;;;;;;;;;5057570;28;20225;-76
2022/03/17 07:56:12;;;;;;;33.77;29.00;;;;;;;;;;5058452;28;20269;-76
2022/03/17 07:58:40;;;;;;;32.13;28.57;;;;;;;;;;5056712;28;20197;-76
2022/03/17 08:01:07;;;;;;;35.67;29.97;;;;;;;;;;5057076;28;20193;-76
2022/03/17 08:03:34;;;;;;;32.87;29.37;;;;;;;;;;5056973;28;20261;-76
2022/03/17 08:06:03;;;;;;;33.57;29.47;;;;;;;;;;5056844;28;20229;-76
2022/03/17 08:08:30;;;;;;;33.30;29.73;;;;;;;;;;5054390;28;20270;-78
2022/03/17 08:10:59;;;;;;;33.93;29.43;;;;;;;;;;5055786;28;20202;-76
2022/03/17 08:13:30;;;;;;;33.07;28.80;;;;;;;;;;5054619;28;20279;-76
2022/03/17 08:15:57;;;;;;;30.83;27.50;;;;;;;;;;5054615;28;20201;-75
2022/03/17 08:18:24;;;;;;;31.37;28.07;;;;;;;;;;5054584;28;20313;-76
2022/03/17 08:20:52;;;;;;;34.03;30.37;;;;;;;;;;5054554;28;20236;-78
2022/03/17 08:23:22;;;;;;;32.47;27.83;;;;;;;;;;5054625;28;20243;-75
2022/03/17 08:25:50;;;;;;;33.03;28.87;;;;;;;;;;5055488;28;20208;-76
2022/03/17 08:28:18;;;;;;;33.67;28.57;;;;;;;;;;5051583;28;20197;-76
2022/03/17 08:30:47;;;;;;;33.73;30.07;;;;;;;;;;5052635;28;20213;-76
2022/03/17 08:33:18;;;;;;;38.37;30.37;;;;;;;;;;5055286;28;20315;-75
2022/03/17 08:35:45;;;;;;;36.07;30.80;;;;;;;;;;5056013;28;20229;-75
2022/03/17 08:38:13;;;;;;;33.47;29.73;;;;;;;;;;5052872;28;20232;-75
2022/03/17 08:40:41;;;;;;;34.17;29.20;;;;;;;;;;5056067;28;20196;-75
2022/03/17 08:43:12;;;;;;;32.40;28.93;;;;;;;;;;5056829;28;20262;-78
2022/03/17 08:51:10;;;;;;;32.77;28.73;;;;;;;;;;5053091;28;20216;-76
2022/03/17 08:53:37;;;;;;;32.10;28.60;;;;;;;;;;5052488;28;20252;-77
2022/03/17 08:56:06;;;;;;;40.37;29.57;;;;;;;;;;5053151;28;20297;-75
2022/03/17 08:58:35;;;;;;;35.23;30.17;;;;;;;;;;5052012;28;20263;-75
2022/03/17 09:01:03;;;;;;;33.20;29.13;;;;;;;;;;5039908;28;20204;-77
2022/03/17 09:03:30;;;;;;;33.43;27.70;;;;;;;;;;5050933;28;20189;-78
2022/03/17 09:05:59;;;;;;;32.90;29.13;;;;;;;;;;5052270;28;20327;-78
2022/03/17 09:08:26;;;;;;;30.20;27.13;;;;;;;;;;5051945;28;20207;-78
2022/03/17 09:10:55;;;;;;;31.50;28.10;;;;;;;;;;5052337;28;20263;-76
2022/03/17 09:13:25;;;;;;;31.03;27.70;;;;;;;;;;5052787;28;20233;-76
2022/03/17 09:15:52;;;;;;;29.73;25.97;;;;;;;;;;5052499;28;20237;-76
2022/03/17 09:18:20;;;;;;;30.57;27.43;;;;;;;;;;5052156;28;20197;-75
2022/03/17 09:20:48;;;;;;;30.50;27.30;;;;;;;;;;5052676;28;20299;-75
2022/03/17 09:23:18;;;;;;;29.23;26.23;;;;;;;;;;5052195;28;20368;-76
2022/03/17 09:25:45;;;;;;;32.40;28.20;;;;;;;;;;5049447;28;20307;-76
2022/03/17 09:28:15;;;;;;;29.80;26.67;;;;;;;;;;5048832;28;20207;-76
2022/03/17 09:30:44;;;;;;;27.23;24.43;;;;;;;;;;5052108;28;20200;-76
2022/03/17 09:33:14;;;;;;;29.17;26.20;;;;;;;;;;5049402;28;20220;-76
2022/03/17 09:35:42;;;;;;;31.37;27.97;;;;;;;;;;5047009;28;20313;-76
2022/03/17 09:38:12;;;;;;;29.77;26.70;;;;;;;;;;5048430;28;20205;-76
2022/03/17 09:40:39;;;;;;;27.80;24.87;;;;;;;;;;5054055;28;20197;-74
2022/03/17 09:43:29;;;;;;;31.17;27.80;;;;;;;;;;5054332;28;20230;-76
2022/03/17 09:46:00;;;;;;;32.33;28.88;;;;;;;;;;5051749;28;20263;-76
2022/03/17 09:48:30;;;;;;;28.23;25.23;;;;;;;;;;5052195;28;20208;-77
2022/03/17 09:51:02;;;;;;;29.43;26.40;;;;;;;;;;5052349;28;20197;-76
2022/03/17 09:53:30;;;;;;;32.33;28.77;;;;;;;;;;5052776;28;20232;-76
2022/03/17 09:55:57;;;;;;;32.08;28.60;;;;;;;;;;5052750;28;20213;-76
2022/03/17 09:58:24;;;;;;;41.50;29.35;;;;;;;;;;5051783;28;20197;-76
2022/03/17 10:00:53;;;;;;;28.35;25.27;;;;;;;;;;5052550;28;20228;-76
2022/03/17 10:03:25;;;;;;;30.92;27.58;;;;;;;;;;5053135;28;20197;-76
2022/03/17 10:05:53;;;;;;;29.67;26.50;;;;;;;;;;5052851;28;20201;-76
2022/03/17 10:08:21;;;;;;;30.63;27.30;;;;;;;;;;5052507;28;20201;-76
2022/03/17 10:10:52;;;;;;;29.52;26.40;;;;;;;;;;5054841;28;20205;-76
2022/03/17 10:13:20;;;;;;;28.08;25.13;;;;;;;;;;5054482;28;20213;-76
2022/03/17 10:15:48;;;;;;;27.02;24.30;;;;;;;;;;5053882;28;20321;-76
2022/03/17 10:18:24;;;;;;;28.45;25.38;;;;;;;;;;5051319;28;20273;-77
2022/03/17 10:21:11;;;;;;;26.20;23.70;;;;;;;;;;5052513;28;20215;-76
2022/03/17 10:23:48;;;;;;;26.67;23.85;;;;;;;;;;5046202;28;20205;-76
2022/03/17 10:26:31;;;;;;;22.88;20.42;;;;;;;;;;5051077;28;20531;-76
2022/03/17 10:29:06;;;;;;;25.33;22.45;;;;;;;;;;5051348;28;20209;-76
2022/03/17 10:31:34;;;;;;;24.90;21.50;;;;;;;;;;5033658;28;20193;-76
2022/03/17 10:34:06;;;;;;;24.65;21.83;;;;;;;;;;5033335;28;20233;-76
2022/03/17 10:36:34;;;;;;;26.90;24.10;;;;;;;;;;5035949;28;20198;-76
2022/03/17 10:39:02;;;;;;;25.97;23.17;;;;;;;;;;5050056;28;20297;-76
2022/03/17 10:41:40;;;;;;;26.90;24.02;;;;;;;;;;5048820;28;20197;-76
2022/03/17 10:44:11;;;;;;;27.70;24.90;;;;;;;;;;5052431;28;20225;-76
2022/03/17 10:46:38;;;;;;;31.67;26.60;;;;;;;;;;5048772;28;20221;-76
2022/03/17 10:49:09;;;;;;;29.97;25.83;;;;;;;;;;5049297;28;20255;-76
2022/03/17 10:51:37;;;;;;;29.40;26.30;;;;;;;;;;5051538;28;20205;-76
2022/03/17 10:54:09;;;;;;;27.52;24.45;;;;;;;;;;5051480;28;20221;-76
2022/03/17 10:56:37;;;;;;;29.33;26.13;;;;;;;;;;5048164;28;20200;-76
2022/03/17 10:59:07;;;;;;;30.00;25.67;;;;;;;;;;5049859;28;20209;-78
2022/03/17 11:01:38;;;;;;;28.37;24.90;;;;;;;;;;5050339;28;20201;-76
2022/03/17 11:04:07;;;;;;;29.93;25.47;;;;;;;;;;5051139;28;20241;-77
2022/03/17 11:06:39;;;;;;;30.23;25.67;;;;;;;;;;5045856;28;20292;-76
2022/03/17 11:09:08;;;;;;;28.17;25.17;;;;;;;;;;5049596;28;20202;-77
2022/03/17 11:11:35;;;;;;;29.57;26.47;;;;;;;;;;5052184;28;20293;-76
2022/03/17 11:14:12;;;;;;;34.27;26.33;;;;;;;;;;5049557;28;20312;-82
2022/03/17 11:16:41;;;;;;;31.00;26.27;;;;;;;;;;5050975;28;20200;-77
2022/03/17 11:19:12;;;;;;;31.83;26.77;;;;;;;;;;5048767;28;20205;-78
2022/03/17 11:21:41;;;;;;;30.47;27.23;;;;;;;;;;5053305;28;20189;-76
2022/03/17 11:24:08;;;;;;;31.77;25.57;;;;;;;;;;5051920;28;20305;-75
2022/03/17 11:26:37;;;;;;;33.57;26.97;;;;;;;;;;5052247;28;20236;-81
2022/03/17 11:29:05;;;;;;;32.27;27.53;;;;;;;;;;5053960;28;20212;-79
2022/03/17 11:31:53;;;;;;;31.17;27.40;;;;;;;;;;5053245;28;20201;-77
2022/03/17 11:34:47;;;;;;;32.33;28.17;;;;;;;;;;5055121;28;20312;-77
2022/03/17 11:37:23;;;;;;;32.87;27.67;;;;;;;;;;5046126;28;20251;-79
2022/03/17 11:39:51;;;;;;;33.27;27.67;;;;;;;;;;5059845;28;20201;-81
2022/03/17 11:42:33;;;;;;;32.57;29.03;;;;;;;;;;5064646;28;20253;-80
2022/03/17 11:45:04;;;;;;;33.13;29.17;;;;;;;;;;5054902;28;20294;-80
2022/03/17 11:47:36;;;;;;;35.90;28.47;;;;;;;;;;5058482;28;20229;-80
2022/03/17 11:50:18;;;;;;;32.37;28.17;;;;;;;;;;5062169;28;20209;-80
2022/03/17 11:52:51;;;;;;;35.03;29.27;;;;;;;;;;5050708;28;20213;-79
2022/03/17 11:55:42;;;;;;;32.10;28.60;;;;;;;;;;5050800;28;20244;-79
2022/03/17 11:58:23;;;;;;;32.80;28.57;;;;;;;;;;5038318;28;20217;-80
2022/03/17 12:00:52;;;;;;;33.63;27.77;;;;;;;;;;5057045;28;20215;-80
2022/03/17 12:03:26;;;;;;;32.10;28.60;;;;;;;;;;5058958;28;20261;-80
2022/03/17 12:06:09;;;;;;;34.17;30.47;;;;;;;;;;5057845;28;20670;-80
2022/03/17 12:08:38;;;;;;;35.03;29.90;;;;;;;;;;5057806;28;20208;-80
2022/03/17 12:11:09;;;;;;;35.07;29.77;;;;;;;;;;5056255;28;20205;-79
2022/03/17 12:13:37;;;;;;;33.30;29.70;;;;;;;;;;5054773;28;20224;-80
2022/03/17 12:16:05;;;;;;;36.43;30.07;;;;;;;;;;5062611;28;20209;-78
2022/03/17 12:19:01;;;;;;;32.47;28.13;;;;;;;;;;5046493;28;20224;-78
2022/03/17 12:21:47;;;;;;;33.27;28.20;;;;;;;;;;5053088;28;20209;-79
2022/03/17 12:24:33;;;;;;;32.20;28.70;;;;;;;;;;5052570;28;20230;-78
2022/03/17 12:27:04;;;;;;;33.43;29.57;;;;;;;;;;5051825;28;20296;-78
2022/03/17 12:29:31;;;;;;;35.90;32.07;;;;;;;;;;5047402;28;20248;-78
2022/03/17 12:32:04;;;;;;;33.07;29.53;;;;;;;;;;5054059;28;20276;-78
2022/03/17 12:34:56;;;;;;;32.90;29.40;;;;;;;;;;5053022;28;20224;-78
2022/03/17 12:37:25;;;;;;;33.97;30.40;;;;;;;;;;5050179;28;20255;-78
2022/03/17 12:39:55;;;;;;;37.90;28.83;;;;;;;;;;5047663;28;20197;-79
2022/03/17 12:42:23;;;;;;;32.33;28.90;;;;;;;;;;5056987;28;20197;-79
2022/03/17 12:44:52;;;;;;;32.67;29.27;;;;;;;;;;5054293;28;20591;-78
2022/03/17 12:47:20;;;;;;;33.57;29.73;;;;;;;;;;5051713;28;20228;-78
2022/03/17 12:49:51;;;;;;;35.70;30.63;;;;;;;;;;5053540;28;20209;-79
2022/03/17 12:52:20;;;;;;;33.33;29.70;;;;;;;;;;5052828;28;20196;-78
2022/03/17 12:54:49;;;;;;;34.07;30.43;;;;;;;;;;5052417;28;20232;-78
2022/03/17 12:57:19;;;;;;;33.90;30.20;;;;;;;;;;5052031;28;20292;-79
2022/03/17 12:59:46;;;;;;;33.90;30.03;;;;;;;;;;5052946;28;20205;-80
2022/03/17 13:02:18;;;;;;;32.07;28.67;;;;;;;;;;5052938;28;20205;-77
2022/03/17 13:04:46;;;;;;;33.43;29.83;;;;;;;;;;5053104;28;20225;-79
2022/03/17 13:07:28;;;;;;;32.20;28.70;;;;;;;;;;5052669;28;20253;-79
2022/03/17 13:09:55;;;;;;;34.83;30.93;;;;;;;;;;5053873;28;20216;-79
2022/03/17 13:15:13;;;;;;;32.73;28.77;;;;;;;;;;5054183;28;20239;-78
2022/03/17 13:17:42;;;;;;;34.07;29.20;;;;;;;;;;5051662;28;20224;-78
2022/03/17 13:20:25;;;;;;;34.17;30.47;;;;;;;;;;5046935;28;20220;-82
2022/03/17 13:23:02;;;;;;;33.33;29.13;;;;;;;;;;5040277;28;20205;-77
2022/03/17 13:25:36;;;;;;;33.33;29.83;;;;;;;;;;5056362;28;20216;-76
2022/03/17 13:28:07;;;;;;;33.73;29.87;;;;;;;;;;5058677;28;20243;-78
2022/03/17 13:30:36;;;;;;;33.87;29.83;;;;;;;;;;5043379;28;20189;-76
2022/03/17 13:33:07;;;;;;;33.60;29.67;;;;;;;;;;5056097;28;20212;-76
2022/03/17 13:35:50;;;;;;;36.30;30.73;;;;;;;;;;5054788;28;20228;-77
2022/03/17 13:38:27;;;;;;;36.57;30.90;;;;;;;;;;5044348;28;20200;-78
2022/03/17 13:41:07;;;;;;;34.03;29.97;;;;;;;;;;5059463;28;20216;-81
2022/03/17 13:43:37;;;;;;;33.20;29.63;;;;;;;;;;5052545;28;20205;-79
2022/03/17 13:46:19;;;;;;;36.60;32.07;;;;;;;;;;5052377;28;20205;-79
2022/03/17 13:48:49;;;;;;;35.50;30.90;;;;;;;;;;5063921;28;20227;-79
2022/03/17 13:51:24;;;;;;;36.63;30.13;;;;;;;;;;5051782;28;20205;-81
2022/03/17 13:53:51;;;;;;;40.10;32.13;;;;;;;;;;5060637;28;20220;-80
2022/03/17 13:56:31;;;;;;;36.17;29.23;;;;;;;;;;5059184;28;20262;-79
2022/03/17 13:59:00;;;;;;;35.37;30.63;;;;;;;;;;5064977;28;20193;-78
2022/03/17 14:01:42;;;;;;;41.20;31.50;;;;;;;;;;5068135;28;20236;-82
2022/03/17 14:04:14;;;;;;;34.70;30.80;;;;;;;;;;5051648;28;20212;-78
2022/03/17 14:06:42;;;;;;;34.67;29.73;;;;;;;;;;5050742;28;20205;-77
2022/03/17 14:09:12;;;;;;;34.70;30.60;;;;;;;;;;5072394;28;20262;-77
2022/03/17 14:11:42;;;;;;;37.50;30.47;;;;;;;;;;5053140;28;20216;-77
2022/03/17 14:14:13;;;;;;;37.27;30.87;;;;;;;;;;5049503;28;20221;-76
2022/03/17 14:16:41;;;;;;;34.90;30.87;;;;;;;;;;5056194;28;20235;-77
2022/03/17 14:19:08;;;;;;;34.70;30.20;;;;;;;;;;5065311;28;20254;-77
2022/03/17 14:24:10;;;;;;;34.27;30.53;;;;;;;;;;5054883;28;20228;-77
2022/03/17 14:24:28;;;;;;;37.77;30.10;;;;;;;;;;5051483;28;20213;-78
2022/03/17 14:26:55;;;;;;;37.67;30.20;;;;;;;;;;5064893;28;20650;-77
2022/03/17 14:29:27;;;;;;;33.83;30.07;;;;;;;;;;5055874;28;20201;-77
2022/03/17 14:31:56;;;;;;;36.70;29.93;;;;;;;;;;5032725;28;20202;-77
2022/03/17 14:34:25;;;;;;;32.03;28.50;;;;;;;;;;5049739;28;20320;-77
2022/03/17 14:36:55;;;;;;;33.37;29.53;;;;;;;;;;5051508;28;20221;-76
2022/03/17 14:39:25;;;;;;;33.80;29.87;;;;;;;;;;5054117;28;20254;-78
2022/03/17 14:41:54;;;;;;;34.23;29.87;;;;;;;;;;5051930;28;20228;-84
2022/03/17 14:44:24;;;;;;;33.43;29.47;;;;;;;;;;5052812;28;20213;-80